Time;durP1;ratioP1;P1;durP2;ratioP2;P2;SDS_P1;SDS_P2;PMS_P1;PMS_P2;Temp;Humidity;BMP_temperature;BMP_pressure;BME280_temperature;BME280_humidity;BME280_pressure;Samples;Min_cycle;Max_cycle;Signal;HPM_P1;HPM_P2
2022/12/06 00:01:45;;;;;;;7.75;3.08;;;5.20;99.90;;;;;;4818587;28;20457;-71
2022/12/06 00:04:14;;;;;;;12.27;2.65;;;5.20;99.90;;;;;;4836743;28;20899;-72
2022/12/06 00:06:43;;;;;;;11.27;3.35;;;5.20;99.90;;;;;;4800129;28;20444;-70
2022/12/06 00:09:17;;;;;;;8.55;3.08;;;5.20;99.90;;;;;;4817438;28;20554;-70
2022/12/06 00:11:43;;;;;;;7.85;2.95;;;5.20;99.90;;;;;;4840917;28;20585;-71
2022/12/06 00:14:10;;;;;;;11.73;4.13;;;5.20;99.90;;;;;;4817937;28;20447;-70
2022/12/06 00:16:36;;;;;;;7.72;3.50;;;5.30;99.90;;;;;;4853034;28;20412;-70
2022/12/06 00:19:03;;;;;;;6.75;3.53;;;5.20;99.90;;;;;;4811657;28;20436;-70
2022/12/06 00:21:32;;;;;;;13.48;3.63;;;5.50;99.90;;;;;;4837339;28;20628;-70
2022/12/06 00:24:01;;;;;;;10.02;3.50;;;5.20;99.90;;;;;;4802357;28;20895;-70
2022/12/06 00:26:29;;;;;;;10.75;3.30;;;5.20;99.90;;;;;;4829158;28;20910;-70
2022/12/06 00:28:57;;;;;;;11.30;3.45;;;5.20;99.90;;;;;;4811724;28;21186;-70
2022/12/06 00:31:25;;;;;;;8.90;3.33;;;5.00;99.90;;;;;;4806671;28;20375;-70
2022/12/06 00:33:52;;;;;;;12.38;3.97;;;5.20;99.90;;;;;;4806886;28;20392;-70
2022/12/06 00:36:20;;;;;;;10.32;3.97;;;4.80;99.90;;;;;;4821180;28;20469;-70
2022/12/06 00:38:47;;;;;;;9.68;3.20;;;4.90;99.90;;;;;;4816518;28;20545;-70
2022/12/06 00:41:18;;;;;;;7.35;2.90;;;5.10;99.90;;;;;;4825946;28;20384;-70
2022/12/06 00:43:44;;;;;;;9.05;3.47;;;5.10;99.90;;;;;;4812457;28;20364;-69
2022/12/06 00:46:16;;;;;;;8.55;3.05;;;5.10;99.90;;;;;;4820780;28;20255;-74
2022/12/06 00:48:46;;;;;;;10.25;2.95;;;5.30;99.90;;;;;;4834587;28;20321;-74
2022/12/06 00:51:13;;;;;;;6.65;2.80;;;5.10;99.90;;;;;;4857116;28;20830;-74
2022/12/06 00:53:40;;;;;;;10.50;3.67;;;5.10;99.90;;;;;;4828416;28;20866;-73
2022/12/06 00:56:06;;;;;;;8.10;3.20;;;5.00;99.90;;;;;;4822631;28;20838;-74
2022/12/06 00:58:32;;;;;;;11.40;3.20;;;5.00;99.90;;;;;;4824614;28;20564;-73
2022/12/06 01:01:15;;;;;;;9.85;3.10;;;4.70;99.90;;;;;;4816307;28;20503;-73
2022/12/06 01:03:42;;;;;;;9.32;2.92;;;5.00;99.90;;;;;;4800905;28;21080;-74
2022/12/06 01:06:11;;;;;;;7.97;2.83;;;5.00;99.90;;;;;;4815784;28;20486;-74
2022/12/06 01:08:38;;;;;;;7.93;2.83;;;5.00;99.90;;;;;;4808965;28;20324;-74
2022/12/06 01:11:04;;;;;;;9.02;3.08;;;4.70;99.90;;;;;;4807577;28;20488;-73
2022/12/06 01:13:30;;;;;;;10.27;2.70;;;5.00;99.90;;;;;;4822556;28;20520;-74
2022/12/06 01:15:56;;;;;;;14.80;3.20;;;5.00;99.90;;;;;;4833745;28;20348;-73
2022/12/06 01:18:22;;;;;;;8.75;3.13;;;4.60;99.90;;;;;;4826380;28;20297;-73
2022/12/06 01:20:48;;;;;;;8.77;2.95;;;4.90;99.90;;;;;;4827866;28;20183;-74
2022/12/06 01:23:14;;;;;;;6.25;2.30;;;4.70;99.90;;;;;;4821796;28;20457;-73
2022/12/06 01:25:51;;;;;;;7.40;2.85;;;5.00;99.90;;;;;;4809737;28;20874;-69
2022/12/06 01:28:17;;;;;;;9.15;2.53;;;5.10;99.90;;;;;;4810581;28;20905;-70
2022/12/06 01:30:43;;;;;;;8.90;2.60;;;5.00;99.90;;;;;;4842131;28;20380;-70
2022/12/06 01:33:08;;;;;;;9.82;2.65;;;5.00;99.90;;;;;;4811104;28;20525;-70
2022/12/06 01:35:39;;;;;;;9.18;3.35;;;4.90;99.90;;;;;;4823763;28;20375;-68
2022/12/06 01:38:04;;;;;;;11.02;2.70;;;4.90;99.90;;;;;;4832165;28;20925;-69
2022/12/06 01:40:39;;;;;;;6.93;2.50;;;5.00;99.90;;;;;;4813604;28;20417;-70
2022/12/06 01:43:25;;;;;;;8.13;2.60;;;5.00;99.90;;;;;;4803758;28;20402;-70
2022/12/06 01:45:52;;;;;;;7.65;2.38;;;4.90;99.90;;;;;;4826187;28;20903;-69
2022/12/06 01:48:18;;;;;;;9.85;2.47;;;4.90;99.90;;;;;;4809538;28;20468;-70
2022/12/06 01:50:43;;;;;;;5.60;2.33;;;4.90;99.90;;;;;;4826638;28;20966;-69
2022/12/06 01:53:10;;;;;;;7.75;2.17;;;4.90;99.90;;;;;;4823294;28;20045;-69
2022/12/06 01:55:38;;;;;;;8.07;2.25;;;5.10;99.90;;;;;;4837067;28;21077;-70
2022/12/06 01:58:12;;;;;;;6.05;1.95;;;5.50;99.90;;;;;;4826597;28;20469;-70
2022/12/06 02:00:38;;;;;;;5.80;2.00;;;5.30;99.90;;;;;;4828026;28;20706;-70
2022/12/06 02:03:08;;;;;;;4.18;1.65;;;5.10;99.90;;;;;;4809474;28;20118;-70
2022/12/06 02:05:37;;;;;;;5.43;1.93;;;5.00;99.90;;;;;;4825651;28;20049;-69
2022/12/06 02:08:03;;;;;;;8.27;2.47;;;5.30;99.90;;;;;;4817514;28;21019;-70
2022/12/06 02:10:32;;;;;;;6.80;1.60;;;4.90;99.90;;;;;;4818660;28;20387;-69
2022/12/06 02:12:59;;;;;;;5.47;1.45;;;4.80;99.90;;;;;;4808907;28;20449;-70
2022/12/06 02:15:38;;;;;;;9.55;2.00;;;4.80;99.90;;;;;;4800479;28;20549;-70
2022/12/06 02:18:23;;;;;;;5.28;1.92;;;4.80;99.90;;;;;;4806036;28;20383;-70
2022/12/06 02:21:24;;;;;;;8.07;2.00;;;5.40;99.90;;;;;;4858455;28;20634;-67
2022/12/06 02:24:20;;;;;;;4.55;1.70;;;4.80;99.90;;;;;;4809168;28;20344;-69
2022/12/06 02:26:55;;;;;;;6.38;1.77;;;4.80;99.90;;;;;;4824671;28;20258;-69
2022/12/06 02:29:50;;;;;;;6.72;1.50;;;4.80;99.90;;;;;;4834413;28;20547;-69
2022/12/06 02:32:33;;;;;;;3.13;1.30;;;4.80;99.90;;;;;;4833590;28;20353;-69
2022/12/06 02:35:11;;;;;;;4.57;1.45;;;4.70;99.90;;;;;;4824414;28;20558;-69
2022/12/06 02:38:00;;;;;;;7.22;1.77;;;4.40;99.90;;;;;;4808186;28;20616;-70
2022/12/06 02:40:33;;;;;;;5.00;1.50;;;4.90;99.90;;;;;;4783867;28;20452;-70
2022/12/06 02:43:07;;;;;;;6.25;1.75;;;4.70;99.90;;;;;;4823902;28;20444;-69
2022/12/06 02:45:39;;;;;;;5.65;1.70;;;4.70;99.90;;;;;;4822129;28;20474;-70
2022/12/06 02:48:07;;;;;;;4.63;1.40;;;4.70;99.90;;;;;;4823036;28;20396;-70
2022/12/06 02:50:40;;;;;;;4.07;1.52;;;4.80;99.90;;;;;;4836595;28;20597;-69
2022/12/06 02:53:10;;;;;;;7.07;1.63;;;4.90;99.90;;;;;;4842721;28;20605;-69
2022/12/06 02:55:37;;;;;;;3.53;1.40;;;4.70;99.90;;;;;;4829819;28;20383;-74
2022/12/06 02:58:02;;;;;;;4.57;1.67;;;4.70;99.90;;;;;;4820038;28;20316;-73
2022/12/06 03:00:44;;;;;;;5.10;1.58;;;4.70;99.90;;;;;;4828233;28;20382;-73
2022/12/06 03:03:49;;;;;;;6.78;1.67;;;4.70;99.90;;;;;;4820172;28;20405;-73
2022/12/06 03:06:48;;;;;;;4.07;1.70;;;5.20;99.90;;;;;;4802773;28;20893;-74
2022/12/06 03:09:24;;;;;;;8.35;1.88;;;4.50;99.90;;;;;;4829331;28;20467;-73
2022/12/06 03:12:32;;;;;;;6.75;1.77;;;4.70;99.90;;;;;;4824300;28;20923;-74
2022/12/06 03:15:20;;;;;;;6.68;1.77;;;4.70;99.90;;;;;;4805748;28;20963;-72
2022/12/06 03:17:52;;;;;;;5.57;2.10;;;4.80;99.90;;;;;;4804785;28;20457;-75
2022/12/06 03:20:41;;;;;;;6.55;2.13;;;4.70;99.90;;;;;;4805847;28;20072;-72
2022/12/06 03:23:21;;;;;;;4.88;1.70;;;4.70;99.90;;;;;;4828288;28;20369;-74
2022/12/06 03:25:48;;;;;;;8.38;1.80;;;4.70;99.90;;;;;;4827494;28;20340;-74
2022/12/06 03:28:17;;;;;;;6.18;1.95;;;4.70;99.90;;;;;;4824107;28;20104;-73
2022/12/06 03:30:47;;;;;;;4.78;1.90;;;4.70;99.90;;;;;;4805990;28;20381;-74
2022/12/06 03:33:15;;;;;;;5.38;1.98;;;5.00;99.90;;;;;;4826272;28;20431;-74
2022/12/06 03:35:43;;;;;;;3.42;1.75;;;5.20;99.90;;;;;;4820890;28;20410;-73
2022/12/06 03:38:13;;;;;;;6.68;1.90;;;4.70;99.90;;;;;;4822606;28;20333;-74
2022/12/06 03:40:44;;;;;;;7.53;1.92;;;4.70;99.90;;;;;;4803306;28;20333;-75
2022/12/06 03:43:10;;;;;;;4.25;1.90;;;4.70;99.90;;;;;;4808502;28;20340;-74
2022/12/06 03:45:41;;;;;;;5.45;2.00;;;4.60;99.90;;;;;;4828810;28;20515;-74
2022/12/06 03:48:10;;;;;;;;;;;4.70;99.90;;;;;;4804025;28;20458;-73
2022/12/06 03:50:51;;;;;;;6.70;1.73;;;4.70;99.90;;;;;;4821429;28;20282;-73
2022/12/06 03:53:18;;;;;;;4.85;1.58;;;4.70;99.90;;;;;;4819444;28;20476;-75
2022/12/06 03:55:44;;;;;;;4.78;1.80;;;4.70;99.90;;;;;;4813434;28;20584;-73
2022/12/06 03:58:10;;;;;;;4.57;1.70;;;4.70;99.90;;;;;;4811638;28;20036;-74
2022/12/06 04:00:37;;;;;;;6.13;2.22;;;4.80;99.90;;;;;;4827062;28;21047;-74
2022/12/06 04:03:06;;;;;;;6.20;2.08;;;4.60;99.90;;;;;;4838200;28;21161;-72
2022/12/06 04:05:32;;;;;;;4.07;1.83;;;4.60;99.90;;;;;;4815261;28;20928;-74
2022/12/06 04:07:57;;;;;;;5.70;1.70;;;4.50;99.90;;;;;;4813801;28;20051;-73
2022/12/06 04:10:23;;;;;;;4.53;1.70;;;4.50;99.90;;;;;;4848224;28;20266;-73
2022/12/06 04:13:01;;;;;;;4.50;2.05;;;4.50;99.90;;;;;;4826234;28;20498;-70
2022/12/06 04:15:37;;;;;;;7.28;1.92;;;4.40;99.90;;;;;;4823752;28;21036;-69
2022/12/06 04:18:12;;;;;;;5.45;2.10;;;5.30;99.90;;;;;;4824583;28;20182;-70
2022/12/06 04:23:45;;;;;;;5.57;1.70;;;4.40;99.90;;;;;;4819589;28;20463;-70
2022/12/06 04:26:14;;;;;;;4.80;1.88;;;4.30;99.90;;;;;;4820310;28;21092;-70
2022/12/06 04:39:38;;;;;;;5.47;1.90;;;4.30;99.90;;;;;;4822868;28;20566;-69
2022/12/06 04:44:48;;;;;;;4.68;1.80;;;4.20;99.90;;;;;;4826964;28;20990;-70
2022/12/06 04:47:14;;;;;;;7.45;2.05;;;3.60;99.90;;;;;;4818470;28;20641;-69
2022/12/06 04:49:40;;;;;;;6.13;1.98;;;4.10;99.90;;;;;;4819516;28;20426;-69
2022/12/06 04:52:07;;;;;;;4.38;1.60;;;4.00;99.90;;;;;;4829508;28;20340;-69
2022/12/06 04:54:34;;;;;;;5.53;1.90;;;4.50;99.90;;;;;;4803759;28;20378;-70
2022/12/06 04:57:00;;;;;;;4.95;2.03;;;4.50;99.90;;;;;;4815332;28;20555;-69
2022/12/06 04:59:27;;;;;;;5.47;2.03;;;3.90;99.90;;;;;;4800840;28;20324;-70
2022/12/06 05:01:54;;;;;;;9.77;2.50;;;4.20;99.90;;;;;;4817775;28;20915;-70
2022/12/06 05:04:20;;;;;;;8.32;2.03;;;4.10;99.90;;;;;;4799358;28;20339;-69
2022/12/06 05:06:46;;;;;;;5.88;2.20;;;4.00;99.90;;;;;;4803158;28;20221;-70
2022/12/06 05:09:13;;;;;;;6.75;2.00;;;3.90;99.90;;;;;;4802500;28;20958;-70
2022/12/06 05:11:39;;;;;;;7.35;2.55;;;3.50;99.90;;;;;;4806217;28;20414;-70
2022/12/06 05:14:05;;;;;;;5.03;2.25;;;3.50;99.90;;;;;;4818221;28;20613;-70
2022/12/06 05:16:31;;;;;;;5.70;2.25;;;4.30;99.90;;;;;;4820852;28;20391;-70
2022/12/06 05:18:56;;;;;;;8.50;2.60;;;3.90;99.90;;;;;;4829102;28;20376;-70
2022/12/06 05:21:23;;;;;;;6.68;2.50;;;3.90;99.90;;;;;;4844685;28;21149;-70
2022/12/06 05:23:52;;;;;;;4.88;2.22;;;3.90;99.90;;;;;;4974744;28;20048;-70
2022/12/06 05:26:20;;;;;;;6.35;2.13;;;3.90;99.90;;;;;;5043323;28;20986;-70
2022/12/06 05:28:47;;;;;;;9.30;2.28;;;3.90;99.90;;;;;;5063005;28;20041;-70
2022/12/06 05:31:13;;;;;;;5.78;2.00;;;3.90;99.90;;;;;;5042801;28;20064;-70
2022/12/06 05:33:39;;;;;;;5.53;2.28;;;3.90;99.90;;;;;;5065017;28;20048;-70
2022/12/06 05:36:10;;;;;;;6.28;2.30;;;4.20;99.90;;;;;;5027111;28;20044;-70
2022/12/06 05:38:36;;;;;;;5.25;2.10;;;3.90;99.90;;;;;;5045309;28;20128;-70
2022/12/06 05:41:03;;;;;;;6.72;2.65;;;3.90;99.90;;;;;;5042723;28;20163;-71
2022/12/06 05:43:29;;;;;;;8.05;2.20;;;3.90;99.90;;;;;;5021685;28;20087;-71
2022/12/06 05:45:56;;;;;;;7.18;2.60;;;3.90;99.90;;;;;;5039302;28;20037;-70
2022/12/06 05:48:22;;;;;;;10.52;2.72;;;3.90;99.90;;;;;;5025613;28;20331;-70
2022/12/06 05:50:48;;;;;;;7.68;2.63;;;4.60;99.90;;;;;;5023228;28;20617;-70
2022/12/06 05:53:14;;;;;;;7.68;2.35;;;3.80;99.90;;;;;;5043563;28;20049;-70
2022/12/06 05:55:41;;;;;;;11.43;3.13;;;3.90;99.90;;;;;;5044414;28;20063;-70
2022/12/06 05:58:07;;;;;;;6.35;2.65;;;3.70;99.90;;;;;;5042678;28;20033;-70
2022/12/06 06:00:33;;;;;;;6.95;2.60;;;3.70;99.90;;;;;;5022371;28;20057;-70
2022/12/06 06:03:02;;;;;;;8.95;2.92;;;3.70;99.90;;;;;;5042054;28;20041;-70
2022/12/06 06:05:27;;;;;;;8.10;2.45;;;3.60;99.90;;;;;;5048511;28;20052;-69
2022/12/06 06:07:53;;;;;;;6.65;2.65;;;3.60;99.90;;;;;;5048762;28;20450;-70
2022/12/06 06:10:20;;;;;;;9.65;2.70;;;3.60;99.90;;;;;;5046776;28;20045;-71
2022/12/06 06:12:45;;;;;;;5.72;2.80;;;3.50;99.90;;;;;;5029262;28;20271;-71
2022/12/06 06:15:12;;;;;;;7.25;2.42;;;3.50;99.90;;;;;;5025806;28;20502;-70
2022/12/06 06:17:39;;;;;;;5.45;2.45;;;3.50;99.90;;;;;;5044531;28;20126;-70
2022/12/06 06:20:06;;;;;;;5.40;2.40;;;3.50;99.90;;;;;;5025316;28;20048;-69
2022/12/06 06:22:33;;;;;;;6.97;2.60;;;3.40;99.90;;;;;;5060689;28;20457;-69
2022/12/06 06:25:00;;;;;;;5.82;2.00;;;3.40;99.90;;;;;;5025417;28;20134;-70
2022/12/06 06:27:26;;;;;;;5.70;2.20;;;3.40;99.90;;;;;;5027197;28;20083;-71
2022/12/06 06:29:52;;;;;;;5.47;2.42;;;3.40;99.90;;;;;;5026438;28;20167;-70
2022/12/06 06:32:18;;;;;;;6.53;2.67;;;3.40;99.90;;;;;;5057988;28;20605;-70
2022/12/06 06:34:44;;;;;;;5.68;2.33;;;3.40;99.90;;;;;;5026169;28;20044;-70
2022/12/06 06:37:09;;;;;;;7.32;2.80;;;3.40;99.90;;;;;;5025678;28;20118;-70
2022/12/06 06:39:36;;;;;;;5.57;2.17;;;3.30;99.90;;;;;;5026547;28;20045;-70
2022/12/06 06:42:02;;;;;;;6.15;2.13;;;3.30;99.90;;;;;;5040604;28;20095;-70
2022/12/06 06:44:27;;;;;;;8.27;3.00;;;3.30;99.90;;;;;;5028822;28;20052;-70
2022/12/06 06:46:53;;;;;;;6.70;2.80;;;3.30;99.90;;;;;;5027823;28;20706;-70
2022/12/06 06:49:19;;;;;;;6.43;3.00;;;3.20;99.90;;;;;;5052491;28;20080;-70
2022/12/06 06:51:45;;;;;;;6.45;2.65;;;3.20;99.90;;;;;;5034214;28;20045;-70
2022/12/06 06:54:11;;;;;;;7.05;2.85;;;3.10;99.90;;;;;;5043292;28;20045;-70
2022/12/06 06:56:37;;;;;;;6.40;2.78;;;3.10;99.90;;;;;;5042714;28;20044;-71
2022/12/06 06:59:03;;;;;;;7.18;2.83;;;3.10;99.90;;;;;;5038836;28;20557;-70
2022/12/06 07:01:29;;;;;;;7.00;3.00;;;3.00;99.90;;;;;;5025801;28;20041;-71
2022/12/06 07:03:55;;;;;;;5.63;2.75;;;3.00;99.90;;;;;;5043715;28;20095;-71
2022/12/06 07:06:21;;;;;;;6.07;2.92;;;2.90;99.90;;;;;;5066056;28;20047;-71
2022/12/06 07:08:47;;;;;;;6.38;2.22;;;2.90;99.90;;;;;;5051161;28;20059;-70
2022/12/06 07:11:14;;;;;;;6.38;2.80;;;2.90;99.90;;;;;;5028672;28;20409;-70
2022/12/06 07:13:42;;;;;;;6.32;2.53;;;2.90;99.90;;;;;;5046741;28;20045;-70
2022/12/06 07:16:13;;;;;;;6.45;2.70;;;3.40;99.90;;;;;;5027935;28;20051;-71
2022/12/06 07:18:39;;;;;;;7.95;2.70;;;2.80;99.90;;;;;;5027768;28;20046;-71
2022/12/06 07:21:07;;;;;;;6.07;2.45;;;3.20;99.90;;;;;;5087125;28;20040;-72
2022/12/06 07:23:34;;;;;;;7.75;2.55;;;2.80;99.90;;;;;;5059708;28;20159;-70
2022/12/06 07:26:00;;;;;;;7.22;2.70;;;2.80;99.90;;;;;;5028907;28;20049;-71
2022/12/06 07:28:25;;;;;;;6.18;2.60;;;2.80;99.90;;;;;;5029653;28;20501;-70
2022/12/06 07:30:51;;;;;;;6.13;2.63;;;2.80;99.90;;;;;;5046711;28;20045;-70
2022/12/06 07:33:17;;;;;;;6.97;2.83;;;2.80;99.90;;;;;;5030738;28;20045;-70
2022/12/06 07:35:42;;;;;;;6.07;2.80;;;2.80;99.90;;;;;;5043664;28;20062;-71
2022/12/06 07:38:08;;;;;;;8.77;4.00;;;2.80;99.90;;;;;;5031884;28;20125;-69
2022/12/06 07:40:34;;;;;;;7.35;3.38;;;2.70;99.90;;;;;;5045557;28;20124;-69
2022/12/06 07:45:43;;;;;;;6.80;3.10;;;2.70;99.90;;;;;;5045443;28;20749;-70
2022/12/06 07:48:10;;;;;;;7.60;3.28;;;2.70;99.90;;;;;;5047418;28;20036;-71
2022/12/06 07:50:36;;;;;;;5.72;2.80;;;2.70;99.90;;;;;;5043801;28;20174;-71
2022/12/06 07:53:02;;;;;;;6.45;2.65;;;2.70;99.90;;;;;;5051870;28;20132;-70
2022/12/06 07:55:27;;;;;;;8.57;2.50;;;3.10;99.90;;;;;;5043599;28;20044;-70
2022/12/06 07:57:53;;;;;;;5.82;2.65;;;2.70;99.90;;;;;;5044983;28;20048;-70
2022/12/06 08:00:19;;;;;;;5.65;2.70;;;2.70;99.90;;;;;;5046385;28;20121;-70
2022/12/06 08:02:45;;;;;;;7.35;2.95;;;2.70;99.90;;;;;;5030584;28;20512;-70
2022/12/06 08:05:11;;;;;;;7.82;3.17;;;2.70;99.90;;;;;;5046807;28;20045;-71
2022/12/06 08:07:38;;;;;;;5.50;2.58;;;2.80;99.90;;;;;;5043898;28;20083;-71
2022/12/06 08:10:04;;;;;;;7.60;2.97;;;2.70;99.90;;;;;;5042427;28;20128;-70
2022/12/06 08:12:31;;;;;;;7.05;3.13;;;2.70;99.90;;;;;;5075235;28;20041;-70
2022/12/06 08:14:57;;;;;;;7.32;2.70;;;2.90;99.90;;;;;;5025856;28;20060;-70
2022/12/06 08:17:23;;;;;;;6.88;2.60;;;2.80;99.90;;;;;;5046116;28;20048;-70
2022/12/06 08:19:48;;;;;;;6.38;2.70;;;2.70;99.90;;;;;;5028989;28;20243;-70
2022/12/06 08:22:14;;;;;;;8.20;2.85;;;2.80;99.90;;;;;;5068200;28;20041;-70
2022/12/06 08:24:40;;;;;;;8.50;2.92;;;2.80;99.90;;;;;;5040532;28;20041;-70
2022/12/06 08:27:05;;;;;;;6.90;2.85;;;2.80;99.90;;;;;;5054929;28;20510;-70
2022/12/06 08:29:33;;;;;;;7.93;3.45;;;3.00;99.90;;;;;;5040246;28;20096;-71
2022/12/06 08:31:59;;;;;;;10.80;3.45;;;2.90;99.90;;;;;;5025791;28;20057;-70
2022/12/06 08:34:25;;;;;;;10.13;3.33;;;3.00;99.90;;;;;;5041373;28;20036;-70
2022/12/06 08:36:51;;;;;;;8.43;3.15;;;2.90;99.90;;;;;;5043404;28;20140;-70
2022/12/06 08:39:16;;;;;;;10.13;4.38;;;2.90;99.90;;;;;;5043533;28;20040;-70
2022/12/06 08:41:54;;;;;;;9.15;2.92;;;3.00;99.90;;;;;;5026522;28;20130;-69
2022/12/06 08:44:20;;;;;;;9.75;3.40;;;3.00;99.90;;;;;;5042314;28;20083;-71
2022/12/06 08:46:47;;;;;;;6.90;3.10;;;3.00;99.90;;;;;;5045221;28;20417;-69
2022/12/06 08:49:14;;;;;;;8.65;3.10;;;3.10;99.90;;;;;;5050567;28;21263;-70
2022/12/06 08:51:40;;;;;;;9.50;3.22;;;3.10;99.90;;;;;;5047153;28;20040;-70
2022/12/06 08:54:10;;;;;;;10.20;3.50;;;3.10;99.90;;;;;;5048039;28;20042;-70
2022/12/06 08:56:36;;;;;;;10.95;3.22;;;3.10;99.90;;;;;;5056500;28;20076;-70
2022/12/06 08:59:02;;;;;;;8.07;3.70;;;3.10;99.90;;;;;;5059881;28;20324;-70
2022/12/06 09:01:30;;;;;;;9.50;3.60;;;3.20;99.90;;;;;;5027350;28;20037;-70
2022/12/06 09:04:01;;;;;;;10.45;3.83;;;3.20;99.90;;;;;;5064563;28;20486;-70
2022/12/06 09:06:27;;;;;;;9.88;4.07;;;3.20;99.90;;;;;;5079998;28;20068;-69
2022/12/06 09:08:53;;;;;;;11.02;4.63;;;3.20;99.90;;;;;;5039551;28;20045;-70
2022/12/06 09:11:19;;;;;;;12.85;4.45;;;3.30;99.90;;;;;;5044561;28;20630;-70
2022/12/06 09:13:45;;;;;;;9.35;3.35;;;3.30;99.90;;;;;;5029184;28;20142;-69
2022/12/06 09:16:16;;;;;;;11.63;3.83;;;3.30;99.90;;;;;;5045887;28;20448;-70
2022/12/06 09:18:43;;;;;;;8.00;3.50;;;3.70;99.90;;;;;;5045567;28;20045;-69
2022/12/06 09:21:15;;;;;;;12.40;3.78;;;3.40;99.90;;;;;;5040497;28;20048;-70
2022/12/06 09:23:41;;;;;;;8.90;3.67;;;3.40;99.90;;;;;;5029568;28;20044;-70
2022/12/06 09:26:07;;;;;;;10.43;3.60;;;3.80;99.90;;;;;;5052904;28;20045;-70
2022/12/06 09:28:35;;;;;;;10.57;3.45;;;3.40;99.90;;;;;;5053660;28;20581;-70
2022/12/06 09:31:02;;;;;;;7.80;3.50;;;3.40;99.90;;;;;;5042664;28;20052;-70
2022/12/06 09:33:27;;;;;;;9.40;3.97;;;3.40;99.90;;;;;;5061259;28;20040;-69
2022/12/06 09:35:54;;;;;;;7.88;2.80;;;3.40;99.90;;;;;;5038890;28;20102;-70
2022/12/06 09:38:22;;;;;;;8.57;3.55;;;3.40;99.90;;;;;;5044455;28;20497;-70
2022/12/06 09:41:22;;;;;;;9.38;3.38;;;3.40;99.90;;;;;;5046029;28;20056;-70
2022/12/06 09:44:08;;;;;;;8.98;3.60;;;3.40;99.90;;;;;;5042565;28;20191;-70
2022/12/06 09:46:34;;;;;;;9.02;3.13;;;3.50;99.90;;;;;;5027013;28;20857;-70
2022/12/06 09:49:20;;;;;;;8.73;2.90;;;3.60;99.90;;;;;;5045002;28;20178;-70
2022/12/06 09:52:03;;;;;;;7.50;3.53;;;3.50;99.90;;;;;;5043271;28;20152;-70
2022/12/06 09:54:59;;;;;;;8.57;3.25;;;3.60;99.90;;;;;;5044465;28;20041;-71
2022/12/06 09:57:44;;;;;;;14.38;3.47;;;3.60;99.90;;;;;;5039852;28;20060;-70
2022/12/06 10:00:17;;;;;;;8.32;3.58;;;3.70;99.90;;;;;;5045144;28;20128;-71
2022/12/06 10:02:45;;;;;;;8.77;3.15;;;3.70;99.90;;;;;;5051256;28;20040;-71
2022/12/06 10:05:36;;;;;;;9.07;3.20;;;3.80;99.90;;;;;;5043062;28;20126;-70
2022/12/06 10:08:08;;;;;;;17.65;3.50;;;3.80;99.90;;;;;;5044023;28;20037;-70
2022/12/06 10:10:57;;;;;;;9.40;2.97;;;3.90;99.90;;;;;;5040483;28;20041;-69
2022/12/06 10:13:53;;;;;;;5.90;2.65;;;3.90;99.90;;;;;;5046015;28;20041;-70
2022/12/06 10:16:40;;;;;;;10.63;3.47;;;4.00;99.90;;;;;;5041889;28;20099;-70
2022/12/06 10:19:12;;;;;;;8.20;2.60;;;4.00;99.90;;;;;;5040608;28;20045;-71
2022/12/06 10:22:01;;;;;;;7.75;2.80;;;4.00;99.90;;;;;;5042954;28;20049;-69
2022/12/06 10:24:40;;;;;;;8.23;2.35;;;4.10;99.90;;;;;;5044119;28;20045;-69
2022/12/06 10:27:32;;;;;;;6.82;2.35;;;4.20;99.90;;;;;;5042740;28;20513;-69
2022/12/06 10:30:10;;;;;;;11.57;2.85;;;4.20;99.90;;;;;;5027738;28;20123;-70
2022/12/06 10:33:04;;;;;;;7.90;3.00;;;4.20;99.90;;;;;;5080877;28;20087;-71
2022/12/06 10:36:05;;;;;;;6.15;2.53;;;4.20;99.90;;;;;;5044225;28;20048;-70
2022/12/06 10:38:39;;;;;;;11.63;3.00;;;4.20;99.90;;;;;;5035798;28;20120;-70
2022/12/06 10:41:29;;;;;;;6.97;2.55;;;4.30;99.90;;;;;;5048136;28;20432;-70
2022/12/06 10:44:03;;;;;;;5.78;2.45;;;4.40;99.90;;;;;;5048210;28;20037;-70
2022/12/06 10:49:26;;;;;;;4.57;2.22;;;4.40;99.90;;;;;;5045717;28;20052;-70
2022/12/06 10:52:08;;;;;;;7.57;2.45;;;4.50;99.90;;;;;;5052903;28;20444;-70
2022/12/06 10:55:10;;;;;;;8.50;2.97;;;4.60;99.90;;;;;;5041679;28;20079;-71
2022/12/06 10:57:35;;;;;;;10.50;2.60;;;4.60;99.90;;;;;;4970052;28;20053;-70
2022/12/06 11:00:11;;;;;;;6.18;2.40;;;4.70;99.90;;;;;;5031543;28;20055;-70
2022/12/06 11:03:02;;;;;;;12.15;2.70;;;4.70;99.90;;;;;;5041074;28;20052;-70
2022/12/06 11:05:47;;;;;;;6.68;2.78;;;4.80;99.90;;;;;;5046249;28;20076;-70
2022/12/06 11:08:14;;;;;;;6.45;2.20;;;4.80;99.90;;;;;;5046334;28;20116;-70
2022/12/06 11:10:43;;;;;;;13.10;3.05;;;4.90;99.90;;;;;;5035613;28;20041;-70
2022/12/06 11:13:41;;;;;;;5.95;2.33;;;4.90;99.90;;;;;;5042899;28;20041;-71
2022/12/06 11:16:29;;;;;;;7.75;2.50;;;4.90;99.90;;;;;;5049751;28;20049;-70
2022/12/06 11:19:05;;;;;;;8.98;3.05;;;5.00;99.90;;;;;;5047000;28;20048;-70
2022/12/06 11:21:39;;;;;;;8.07;2.58;;;5.00;99.90;;;;;;5044215;28;20041;-71
2022/12/06 11:24:11;;;;;;;10.48;2.60;;;5.00;99.90;;;;;;5046039;28;20127;-71
2022/12/06 11:26:46;;;;;;;8.02;2.78;;;5.50;99.90;;;;;;5043463;28;20053;-71
2022/12/06 11:29:14;;;;;;;8.00;2.58;;;5.00;99.90;;;;;;5047136;28;20134;-69
2022/12/06 11:31:50;;;;;;;8.30;2.85;;;5.10;99.90;;;;;;5016345;28;20045;-69
2022/12/06 11:34:19;;;;;;;6.35;2.38;;;5.10;99.90;;;;;;5036963;28;20146;-71
2022/12/06 11:36:47;;;;;;;6.45;2.08;;;5.20;99.90;;;;;;5044869;28;20049;-71
2022/12/06 11:39:14;;;;;;;6.00;1.98;;;5.20;99.90;;;;;;5031630;28;20044;-71
2022/12/06 11:41:41;;;;;;;5.47;2.10;;;5.20;99.90;;;;;;5039627;28;20041;-71
2022/12/06 11:44:17;;;;;;;6.50;2.20;;;5.20;99.90;;;;;;5038752;28;20045;-70
2022/12/06 11:46:44;;;;;;;9.23;2.35;;;5.20;99.90;;;;;;5042666;28;20052;-71
2022/12/06 11:49:37;;;;;;;5.40;1.88;;;5.20;99.90;;;;;;5034768;28;20156;-70
2022/12/06 11:52:37;;;;;;;7.10;2.50;;;5.40;99.90;;;;;;5026801;28;20060;-70
2022/12/06 11:55:12;;;;;;;7.35;2.20;;;5.20;99.90;;;;;;5023085;28;20041;-70
2022/12/06 11:57:54;;;;;;;6.70;2.55;;;5.20;99.90;;;;;;5040281;28;20071;-70
2022/12/06 12:00:24;;;;;;;7.40;2.30;;;5.40;99.90;;;;;;5067270;28;20037;-71
2022/12/06 12:02:53;;;;;;;5.57;2.58;;;5.30;99.90;;;;;;5072397;28;20041;-70
2022/12/06 12:05:33;;;;;;;10.43;2.33;;;5.40;99.90;;;;;;5038995;28;20403;-70
2022/12/06 12:08:04;;;;;;;5.15;2.38;;;5.40;99.90;;;;;;5035538;28;21289;-71
2022/12/06 12:10:38;;;;;;;6.35;2.50;;;5.40;99.90;;;;;;5050412;28;20128;-71
2022/12/06 12:16:33;;;;;;;8.07;2.70;;;5.50;99.90;;;;;;4970449;28;20925;-71
2022/12/06 12:19:22;;;;;;;6.53;2.25;;;5.50;99.90;;;;;;4965565;28;20069;-70
2022/12/06 12:21:48;;;;;;;7.15;2.50;;;5.50;99.90;;;;;;5008607;28;20075;-70
2022/12/06 12:24:40;;;;;;;6.70;2.28;;;5.60;99.90;;;;;;5029642;28;20055;-70
2022/12/06 12:27:44;;;;;;;5.88;2.13;;;5.60;99.90;;;;;;4983717;28;20052;-70
2022/12/06 12:30:31;;;;;;;6.88;2.28;;;5.60;99.90;;;;;;5022011;28;20188;-70
2022/12/06 12:33:05;;;;;;;7.80;2.47;;;5.60;99.90;;;;;;4997762;28;20460;-70
2022/12/06 12:35:32;;;;;;;7.03;2.35;;;5.70;99.90;;;;;;5000295;28;20132;-71
2022/12/06 12:38:20;;;;;;;7.28;2.22;;;6.10;99.90;;;;;;5004603;28;20085;-71
2022/12/06 12:40:53;;;;;;;6.72;2.20;;;5.70;99.90;;;;;;4984757;28;20050;-70
2022/12/06 12:43:32;;;;;;;5.70;1.80;;;5.60;99.90;;;;;;5002857;28;20111;-71
2022/12/06 12:46:16;;;;;;;5.70;2.38;;;5.70;99.90;;;;;;5002604;28;20046;-71
2022/12/06 12:48:44;;;;;;;5.63;1.98;;;5.70;99.90;;;;;;5005254;28;20084;-69
2022/12/06 12:51:33;;;;;;;8.35;2.50;;;5.80;99.90;;;;;;5012303;28;20043;-69
2022/12/06 12:54:24;;;;;;;11.15;2.42;;;5.70;99.90;;;;;;4980596;28;20384;-69
2022/12/06 12:56:51;;;;;;;7.85;1.80;;;5.70;99.90;;;;;;4982361;28;20694;-70
2022/12/06 12:59:20;;;;;;;5.78;1.98;;;5.70;99.90;;;;;;4997631;28;20042;-71
2022/12/06 13:01:49;;;;;;;9.63;2.08;;;5.70;99.90;;;;;;4980276;28;20247;-69
2022/12/06 13:04:24;;;;;;;5.05;2.00;;;5.80;99.90;;;;;;5000125;28;20160;-69
2022/12/06 13:07:17;;;;;;;5.90;1.90;;;5.80;99.90;;;;;;5007788;28;20884;-70
2022/12/06 13:09:55;;;;;;;8.77;2.10;;;6.10;99.90;;;;;;4992087;28;20046;-70
2022/12/06 13:12:40;;;;;;;6.05;2.25;;;5.80;99.90;;;;;;5024081;28;20412;-70
2022/12/06 13:15:07;;;;;;;8.65;2.30;;;5.70;99.90;;;;;;5003322;28;20037;-70
2022/12/06 13:17:36;;;;;;;9.20;2.00;;;5.70;99.90;;;;;;5002600;28;20053;-70
2022/12/06 13:20:13;;;;;;;5.63;2.38;;;5.80;99.90;;;;;;5002408;28;20045;-70
2022/12/06 13:22:44;;;;;;;7.25;2.08;;;5.80;99.90;;;;;;5033530;28;20057;-70
2022/12/06 13:25:10;;;;;;;5.50;2.37;;;5.80;99.90;;;;;;5015365;28;20118;-70
2022/12/06 13:27:41;;;;;;;6.68;2.00;;;5.80;99.90;;;;;;5044253;28;20410;-70
2022/12/06 13:30:21;;;;;;;7.18;2.33;;;5.80;99.90;;;;;;5037999;28;20042;-69
2022/12/06 13:33:14;;;;;;;4.57;1.80;;;5.80;99.90;;;;;;5046685;28;20138;-70
2022/12/06 13:36:03;;;;;;;6.05;2.17;;;5.80;99.90;;;;;;5054299;28;20199;-70
2022/12/06 13:38:35;;;;;;;4.53;1.70;;;5.80;99.90;;;;;;5042124;28;20049;-69
2022/12/06 13:44:49;;;;;;;6.03;1.50;;;5.80;99.90;;;;;;5045015;28;20049;-69
2022/12/06 13:47:27;;;;;;;2.67;1.25;;;5.80;99.90;;;;;;5042448;28;20049;-70
2022/12/06 13:49:59;;;;;;;7.97;1.60;;;5.90;99.90;;;;;;5060789;28;20509;-70